sensor_id;sensor_type;location;lat;lon;timestamp;temperature;humidity
12229;DHT22;6177;52.402;9.800;2022-11-15T00:02:21;6.70;87.70
12229;DHT22;6177;52.402;9.800;2022-11-15T00:05:25;6.70;87.80
12229;DHT22;6177;52.402;9.800;2022-11-15T00:08:32;6.70;87.90
12229;DHT22;6177;52.402;9.800;2022-11-15T00:11:36;6.70;88.10
12229;DHT22;6177;52.402;9.800;2022-11-15T00:14:39;6.70;88.20
12229;DHT22;6177;52.402;9.800;2022-11-15T00:17:43;6.80;88.50
12229;DHT22;6177;52.402;9.800;2022-11-15T00:20:46;6.80;88.60
12229;DHT22;6177;52.402;9.800;2022-11-15T00:23:49;6.90;88.90
12229;DHT22;6177;52.402;9.800;2022-11-15T00:26:52;7.00;89.00
12229;DHT22;6177;52.402;9.800;2022-11-15T00:29:55;7.00;89.00
12229;DHT22;6177;52.402;9.800;2022-11-15T00:33:02;7.10;89.10
12229;DHT22;6177;52.402;9.800;2022-11-15T00:36:09;7.10;89.10
12229;DHT22;6177;52.402;9.800;2022-11-15T00:39:13;7.10;89.10
12229;DHT22;6177;52.402;9.800;2022-11-15T00:42:16;7.20;89.20
12229;DHT22;6177;52.402;9.800;2022-11-15T00:45:19;7.30;89.10
12229;DHT22;6177;52.402;9.800;2022-11-15T00:48:22;7.30;89.10
12229;DHT22;6177;52.402;9.800;2022-11-15T00:51:26;7.40;89.10
12229;DHT22;6177;52.402;9.800;2022-11-15T00:54:29;7.40;89.20
12229;DHT22;6177;52.402;9.800;2022-11-15T00:57:32;7.60;89.70
12229;DHT22;6177;52.402;9.800;2022-11-15T01:00:37;7.70;89.80
12229;DHT22;6177;52.402;9.800;2022-11-15T01:03:41;7.90;89.50
12229;DHT22;6177;52.402;9.800;2022-11-15T01:06:45;8.10;89.30
12229;DHT22;6177;52.402;9.800;2022-11-15T01:09:48;8.20;89.00
12229;DHT22;6177;52.402;9.800;2022-11-15T01:12:51;8.40;88.60
12229;DHT22;6177;52.402;9.800;2022-11-15T01:15:54;8.50;88.20
12229;DHT22;6177;52.402;9.800;2022-11-15T01:18:57;8.60;87.90
12229;DHT22;6177;52.402;9.800;2022-11-15T01:22:00;8.70;87.60
12229;DHT22;6177;52.402;9.800;2022-11-15T01:25:04;8.80;86.90
12229;DHT22;6177;52.402;9.800;2022-11-15T01:28:07;8.80;86.80
12229;DHT22;6177;52.402;9.800;2022-11-15T01:31:14;8.90;86.90
12229;DHT22;6177;52.402;9.800;2022-11-15T01:34:18;9.00;86.70
12229;DHT22;6177;52.402;9.800;2022-11-15T01:37:21;9.10;86.50
12229;DHT22;6177;52.402;9.800;2022-11-15T01:40:24;9.20;86.80
12229;DHT22;6177;52.402;9.800;2022-11-15T01:43:35;9.30;86.30
12229;DHT22;6177;52.402;9.800;2022-11-15T01:46:39;9.40;85.80
12229;DHT22;6177;52.402;9.800;2022-11-15T01:49:53;9.30;85.40
12229;DHT22;6177;52.402;9.800;2022-11-15T01:52:58;9.20;85.40
12229;DHT22;6177;52.402;9.800;2022-11-15T01:56:03;9.00;85.50
12229;DHT22;6177;52.402;9.800;2022-11-15T01:59:08;8.90;85.50
12229;DHT22;6177;52.402;9.800;2022-11-15T02:02:12;8.80;85.70
12229;DHT22;6177;52.402;9.800;2022-11-15T02:05:17;8.70;85.80
12229;DHT22;6177;52.402;9.800;2022-11-15T02:08:20;8.50;85.80
12229;DHT22;6177;52.402;9.800;2022-11-15T02:11:24;8.40;86.40
12229;DHT22;6177;52.402;9.800;2022-11-15T02:14:28;8.50;86.90
12229;DHT22;6177;52.402;9.800;2022-11-15T02:27:59;8.80;86.40
12229;DHT22;6177;52.402;9.800;2022-11-15T02:37:57;8.90;86.00
12229;DHT22;6177;52.402;9.800;2022-11-15T02:41:08;8.90;85.70
12229;DHT22;6177;52.402;9.800;2022-11-15T02:44:38;8.80;85.40
12229;DHT22;6177;52.402;9.800;2022-11-15T02:47:46;8.80;85.40
12229;DHT22;6177;52.402;9.800;2022-11-15T02:50:51;8.70;85.80
12229;DHT22;6177;52.402;9.800;2022-11-15T02:53:55;8.70;86.10
12229;DHT22;6177;52.402;9.800;2022-11-15T02:57:04;8.80;86.20
12229;DHT22;6177;52.402;9.800;2022-11-15T03:00:13;8.90;86.20
12229;DHT22;6177;52.402;9.800;2022-11-15T03:07:12;8.90;85.60
12229;DHT22;6177;52.402;9.800;2022-11-15T03:17:00;8.60;85.50
12229;DHT22;6177;52.402;9.800;2022-11-15T03:20:10;8.40;85.80
12229;DHT22;6177;52.402;9.800;2022-11-15T03:23:14;8.30;86.10
12229;DHT22;6177;52.402;9.800;2022-11-15T03:26:20;8.20;86.40
12229;DHT22;6177;52.402;9.800;2022-11-15T03:29:27;8.10;86.60
12229;DHT22;6177;52.402;9.800;2022-11-15T03:32:37;8.10;87.10
12229;DHT22;6177;52.402;9.800;2022-11-15T03:35:44;8.10;87.40
12229;DHT22;6177;52.402;9.800;2022-11-15T03:38:48;8.10;88.10
12229;DHT22;6177;52.402;9.800;2022-11-15T03:42:10;8.10;88.10
12229;DHT22;6177;52.402;9.800;2022-11-15T03:45:27;8.30;88.50
12229;DHT22;6177;52.402;9.800;2022-11-15T03:48:40;8.30;88.70
12229;DHT22;6177;52.402;9.800;2022-11-15T03:51:44;8.40;89.10
12229;DHT22;6177;52.402;9.800;2022-11-15T03:54:53;8.40;89.20
12229;DHT22;6177;52.402;9.800;2022-11-15T03:57:59;8.50;89.30
12229;DHT22;6177;52.402;9.800;2022-11-15T04:01:03;8.50;89.60
12229;DHT22;6177;52.402;9.800;2022-11-15T04:04:06;8.50;89.60
12229;DHT22;6177;52.402;9.800;2022-11-15T04:07:10;8.50;90.00
12229;DHT22;6177;52.402;9.800;2022-11-15T04:10:13;8.50;90.00
12229;DHT22;6177;52.402;9.800;2022-11-15T04:13:17;8.50;90.00
12229;DHT22;6177;52.402;9.800;2022-11-15T04:16:20;8.50;90.20
12229;DHT22;6177;52.402;9.800;2022-11-15T04:19:23;8.50;90.30
12229;DHT22;6177;52.402;9.800;2022-11-15T04:22:45;8.60;90.50
12229;DHT22;6177;52.402;9.800;2022-11-15T04:26:12;8.60;90.60
12229;DHT22;6177;52.402;9.800;2022-11-15T04:29:17;8.60;90.60
12229;DHT22;6177;52.402;9.800;2022-11-15T04:32:39;8.60;90.70
12229;DHT22;6177;52.402;9.800;2022-11-15T04:35:42;8.60;90.70
12229;DHT22;6177;52.402;9.800;2022-11-15T04:38:45;8.60;90.80
12229;DHT22;6177;52.402;9.800;2022-11-15T04:41:49;8.60;90.90
12229;DHT22;6177;52.402;9.800;2022-11-15T04:44:51;8.70;91.10
12229;DHT22;6177;52.402;9.800;2022-11-15T04:47:54;8.60;91.10
12229;DHT22;6177;52.402;9.800;2022-11-15T04:50:58;8.70;91.20
12229;DHT22;6177;52.402;9.800;2022-11-15T04:54:01;8.80;91.30
12229;DHT22;6177;52.402;9.800;2022-11-15T04:57:05;8.80;91.40
12229;DHT22;6177;52.402;9.800;2022-11-15T05:00:11;8.90;91.50
12229;DHT22;6177;52.402;9.800;2022-11-15T05:03:14;9.10;91.60
12229;DHT22;6177;52.402;9.800;2022-11-15T05:06:36;9.40;91.70
12229;DHT22;6177;52.402;9.800;2022-11-15T05:09:40;9.70;91.40
12229;DHT22;6177;52.402;9.800;2022-11-15T05:12:43;10.00;91.10
12229;DHT22;6177;52.402;9.800;2022-11-15T05:15:47;10.20;90.70
12229;DHT22;6177;52.402;9.800;2022-11-15T05:18:51;10.40;90.40
12229;DHT22;6177;52.402;9.800;2022-11-15T05:21:55;10.60;90.10
12229;DHT22;6177;52.402;9.800;2022-11-15T05:24:59;10.70;89.60
12229;DHT22;6177;52.402;9.800;2022-11-15T05:28:03;10.80;89.00
12229;DHT22;6177;52.402;9.800;2022-11-15T05:31:08;10.90;88.40
12229;DHT22;6177;52.402;9.800;2022-11-15T05:34:11;10.90;88.00
12229;DHT22;6177;52.402;9.800;2022-11-15T05:37:16;10.90;87.70
12229;DHT22;6177;52.402;9.800;2022-11-15T05:40:19;10.90;87.40
12229;DHT22;6177;52.402;9.800;2022-11-15T05:43:23;10.90;87.20
12229;DHT22;6177;52.402;9.800;2022-11-15T05:46:27;10.90;86.90
12229;DHT22;6177;52.402;9.800;2022-11-15T05:49:33;10.90;86.70
12229;DHT22;6177;52.402;9.800;2022-11-15T05:52:38;10.90;86.40
12229;DHT22;6177;52.402;9.800;2022-11-15T05:55:42;10.80;86.10
12229;DHT22;6177;52.402;9.800;2022-11-15T05:58:44;10.90;85.80
12229;DHT22;6177;52.402;9.800;2022-11-15T06:01:48;10.80;85.40
12229;DHT22;6177;52.402;9.800;2022-11-15T06:04:52;10.80;85.30
12229;DHT22;6177;52.402;9.800;2022-11-15T06:07:58;10.80;85.00
12229;DHT22;6177;52.402;9.800;2022-11-15T06:11:05;10.70;84.80
12229;DHT22;6177;52.402;9.800;2022-11-15T06:14:08;10.60;84.90
12229;DHT22;6177;52.402;9.800;2022-11-15T06:17:11;10.40;85.00
12229;DHT22;6177;52.402;9.800;2022-11-15T06:20:15;10.30;85.40
12229;DHT22;6177;52.402;9.800;2022-11-15T06:23:18;10.20;86.00
12229;DHT22;6177;52.402;9.800;2022-11-15T06:26:21;10.20;86.20
12229;DHT22;6177;52.402;9.800;2022-11-15T06:29:24;10.20;86.30
12229;DHT22;6177;52.402;9.800;2022-11-15T06:32:29;10.30;86.30
12229;DHT22;6177;52.402;9.800;2022-11-15T06:35:33;10.30;86.60
12229;DHT22;6177;52.402;9.800;2022-11-15T06:38:37;10.40;86.10
12229;DHT22;6177;52.402;9.800;2022-11-15T06:41:40;10.40;85.70
12229;DHT22;6177;52.402;9.800;2022-11-15T06:44:43;10.30;85.40
12229;DHT22;6177;52.402;9.800;2022-11-15T06:47:47;10.20;85.30
12229;DHT22;6177;52.402;9.800;2022-11-15T06:50:55;10.10;85.40
12229;DHT22;6177;52.402;9.800;2022-11-15T06:53:58;10.00;85.50
12229;DHT22;6177;52.402;9.800;2022-11-15T06:57:04;9.90;85.70
12229;DHT22;6177;52.402;9.800;2022-11-15T07:00:08;9.80;85.90
12229;DHT22;6177;52.402;9.800;2022-11-15T07:03:12;9.80;86.20
12229;DHT22;6177;52.402;9.800;2022-11-15T07:06:15;9.70;86.50
12229;DHT22;6177;52.402;9.800;2022-11-15T07:09:18;9.70;86.70
12229;DHT22;6177;52.402;9.800;2022-11-15T07:12:21;9.70;86.90
12229;DHT22;6177;52.402;9.800;2022-11-15T07:15:25;9.80;87.20
12229;DHT22;6177;52.402;9.800;2022-11-15T07:18:28;9.80;87.20
12229;DHT22;6177;52.402;9.800;2022-11-15T07:21:32;9.80;87.70
12229;DHT22;6177;52.402;9.800;2022-11-15T07:24:35;9.90;87.50
12229;DHT22;6177;52.402;9.800;2022-11-15T07:27:39;9.90;87.50
12229;DHT22;6177;52.402;9.800;2022-11-15T07:30:42;10.00;87.40
12229;DHT22;6177;52.402;9.800;2022-11-15T07:33:45;10.10;87.40
12229;DHT22;6177;52.402;9.800;2022-11-15T07:36:48;10.10;87.20
12229;DHT22;6177;52.402;9.800;2022-11-15T07:39:51;10.20;87.10
12229;DHT22;6177;52.402;9.800;2022-11-15T07:43:02;10.20;86.80
12229;DHT22;6177;52.402;9.800;2022-11-15T07:46:07;10.30;86.50
12229;DHT22;6177;52.402;9.800;2022-11-15T07:49:11;10.30;86.30
12229;DHT22;6177;52.402;9.800;2022-11-15T07:52:14;10.30;86.10
12229;DHT22;6177;52.402;9.800;2022-11-15T07:55:18;10.30;86.00
12229;DHT22;6177;52.402;9.800;2022-11-15T07:58:22;10.30;85.90
12229;DHT22;6177;52.402;9.800;2022-11-15T08:01:25;10.30;85.80
12229;DHT22;6177;52.402;9.800;2022-11-15T08:04:28;10.30;85.60
12229;DHT22;6177;52.402;9.800;2022-11-15T08:07:31;10.40;85.70
12229;DHT22;6177;52.402;9.800;2022-11-15T08:10:35;10.40;85.60
12229;DHT22;6177;52.402;9.800;2022-11-15T08:13:38;10.40;85.50
12229;DHT22;6177;52.402;9.800;2022-11-15T08:16:41;10.40;85.40
12229;DHT22;6177;52.402;9.800;2022-11-15T08:19:45;10.50;85.40
12229;DHT22;6177;52.402;9.800;2022-11-15T08:22:48;10.50;85.30
12229;DHT22;6177;52.402;9.800;2022-11-15T08:25:51;10.60;85.20
12229;DHT22;6177;52.402;9.800;2022-11-15T08:28:54;10.70;85.10
12229;DHT22;6177;52.402;9.800;2022-11-15T08:31:58;10.80;84.80
12229;DHT22;6177;52.402;9.800;2022-11-15T08:35:01;10.90;84.60
12229;DHT22;6177;52.402;9.800;2022-11-15T08:38:04;11.10;84.10
12229;DHT22;6177;52.402;9.800;2022-11-15T08:41:31;11.30;83.70
12229;DHT22;6177;52.402;9.800;2022-11-15T08:44:35;11.50;83.20
12229;DHT22;6177;52.402;9.800;2022-11-15T08:47:38;11.60;82.30
12229;DHT22;6177;52.402;9.800;2022-11-15T08:50:41;11.80;81.80
12229;DHT22;6177;52.402;9.800;2022-11-15T08:53:46;12.00;81.00
12229;DHT22;6177;52.402;9.800;2022-11-15T08:56:47;12.00;81.10
12229;DHT22;6177;52.402;9.800;2022-11-15T08:59:51;12.20;80.80
12229;DHT22;6177;52.402;9.800;2022-11-15T09:02:53;12.30;80.30
12229;DHT22;6177;52.402;9.800;2022-11-15T09:05:58;12.40;79.80
12229;DHT22;6177;52.402;9.800;2022-11-15T09:09:02;12.50;79.40
12229;DHT22;6177;52.402;9.800;2022-11-15T09:12:07;12.60;78.80
12229;DHT22;6177;52.402;9.800;2022-11-15T09:15:10;12.70;78.30
12229;DHT22;6177;52.402;9.800;2022-11-15T09:18:13;12.80;78.20
12229;DHT22;6177;52.402;9.800;2022-11-15T09:21:16;12.90;77.90
12229;DHT22;6177;52.402;9.800;2022-11-15T09:24:19;13.00;77.60
12229;DHT22;6177;52.402;9.800;2022-11-15T09:27:22;13.10;77.10
12229;DHT22;6177;52.402;9.800;2022-11-15T09:30:26;13.20;76.90
12229;DHT22;6177;52.402;9.800;2022-11-15T09:33:29;13.30;76.90
12229;DHT22;6177;52.402;9.800;2022-11-15T09:36:32;13.40;76.60
12229;DHT22;6177;52.402;9.800;2022-11-15T09:39:36;13.40;75.90
12229;DHT22;6177;52.402;9.800;2022-11-15T09:43:06;13.50;75.80
12229;DHT22;6177;52.402;9.800;2022-11-15T09:49:45;13.60;75.30
12229;DHT22;6177;52.402;9.800;2022-11-15T09:52:44;13.60;75.00
12229;DHT22;6177;52.402;9.800;2022-11-15T09:55:40;13.70;74.90
12229;DHT22;6177;52.402;9.800;2022-11-15T10:04:22;13.70;74.70
12229;DHT22;6177;52.402;9.800;2022-11-15T10:10:40;13.70;74.70
12229;DHT22;6177;52.402;9.800;2022-11-15T10:13:30;13.80;74.60
12229;DHT22;6177;52.402;9.800;2022-11-15T10:16:33;13.90;74.50
12229;DHT22;6177;52.402;9.800;2022-11-15T10:22:32;14.20;74.00
12229;DHT22;6177;52.402;9.800;2022-11-15T10:28:37;14.40;73.20
12229;DHT22;6177;52.402;9.800;2022-11-15T10:31:27;14.40;72.80
12229;DHT22;6177;52.402;9.800;2022-11-15T10:36:59;14.50;72.90
12229;DHT22;6177;52.402;9.800;2022-11-15T10:40:05;14.60;72.60
12229;DHT22;6177;52.402;9.800;2022-11-15T10:45:49;14.60;72.20
12229;DHT22;6177;52.402;9.800;2022-11-15T10:48:36;14.70;72.10
12229;DHT22;6177;52.402;9.800;2022-11-15T10:51:27;14.70;72.00
12229;DHT22;6177;52.402;9.800;2022-11-15T10:54:27;14.80;71.90
12229;DHT22;6177;52.402;9.800;2022-11-15T10:57:18;14.90;71.60
12229;DHT22;6177;52.402;9.800;2022-11-15T11:00:27;15.00;71.20
12229;DHT22;6177;52.402;9.800;2022-11-15T11:03:29;15.00;70.90
12229;DHT22;6177;52.402;9.800;2022-11-15T11:06:17;15.10;70.60
12229;DHT22;6177;52.402;9.800;2022-11-15T11:09:04;15.20;70.30
12229;DHT22;6177;52.402;9.800;2022-11-15T11:11:51;15.30;70.00
12229;DHT22;6177;52.402;9.800;2022-11-15T11:14:38;15.40;69.80
12229;DHT22;6177;52.402;9.800;2022-11-15T11:26:23;15.50;69.30
12229;DHT22;6177;52.402;9.800;2022-11-15T11:29:32;15.60;68.90
12229;DHT22;6177;52.402;9.800;2022-11-15T11:35:34;15.50;68.80
12229;DHT22;6177;52.402;9.800;2022-11-15T11:44:54;15.50;69.00
12229;DHT22;6177;52.402;9.800;2022-11-15T11:51:09;15.60;68.90
12229;DHT22;6177;52.402;9.800;2022-11-15T11:57:06;15.60;68.70
12229;DHT22;6177;52.402;9.800;2022-11-15T12:02:45;16.10;67.90
12229;DHT22;6177;52.402;9.800;2022-11-15T12:11:20;16.90;65.70
12229;DHT22;6177;52.402;9.800;2022-11-15T12:14:33;17.10;65.10
12229;DHT22;6177;52.402;9.800;2022-11-15T12:17:19;17.10;64.30
12229;DHT22;6177;52.402;9.800;2022-11-15T12:20:16;17.20;63.90
12229;DHT22;6177;52.402;9.800;2022-11-15T12:23:14;17.10;63.80
12229;DHT22;6177;52.402;9.800;2022-11-15T12:26:01;17.20;63.90
12229;DHT22;6177;52.402;9.800;2022-11-15T12:29:10;17.30;63.70
12229;DHT22;6177;52.402;9.800;2022-11-15T12:31:56;17.20;63.50
12229;DHT22;6177;52.402;9.800;2022-11-15T12:34:45;17.10;63.50
12229;DHT22;6177;52.402;9.800;2022-11-15T12:46:03;16.80;64.10
12229;DHT22;6177;52.402;9.800;2022-11-15T12:48:51;16.70;64.20
12229;DHT22;6177;52.402;9.800;2022-11-15T13:03:21;17.60;63.10
12229;DHT22;6177;52.402;9.800;2022-11-15T13:06:09;17.90;62.40
12229;DHT22;6177;52.402;9.800;2022-11-15T13:08:53;18.20;61.60
12229;DHT22;6177;52.402;9.800;2022-11-15T13:11:46;18.40;61.30
12229;DHT22;6177;52.402;9.800;2022-11-15T13:17:54;18.90;60.40
12229;DHT22;6177;52.402;9.800;2022-11-15T13:20:39;19.00;59.60
12229;DHT22;6177;52.402;9.800;2022-11-15T13:23:23;19.00;59.10
12229;DHT22;6177;52.402;9.800;2022-11-15T13:26:12;19.10;58.90
12229;DHT22;6177;52.402;9.800;2022-11-15T13:28:57;19.10;58.70
12229;DHT22;6177;52.402;9.800;2022-11-15T13:31:43;19.20;58.10
12229;DHT22;6177;52.402;9.800;2022-11-15T13:34:31;19.30;57.80
12229;DHT22;6177;52.402;9.800;2022-11-15T13:40:24;19.50;57.30
12229;DHT22;6177;52.402;9.800;2022-11-15T13:43:35;19.70;56.70
12229;DHT22;6177;52.402;9.800;2022-11-15T13:46:23;19.80;55.70
12229;DHT22;6177;52.402;9.800;2022-11-15T13:49:09;19.90;55.00
12229;DHT22;6177;52.402;9.800;2022-11-15T13:51:57;19.80;54.60
12229;DHT22;6177;52.402;9.800;2022-11-15T13:54:45;19.80;54.50
12229;DHT22;6177;52.402;9.800;2022-11-15T13:57:42;19.60;55.10
12229;DHT22;6177;52.402;9.800;2022-11-15T14:00:41;19.20;56.00
12229;DHT22;6177;52.402;9.800;2022-11-15T14:03:41;19.20;56.80
12229;DHT22;6177;52.402;9.800;2022-11-15T14:06:31;19.30;56.60
12229;DHT22;6177;52.402;9.800;2022-11-15T14:09:32;19.30;56.40
12229;DHT22;6177;52.402;9.800;2022-11-15T14:12:32;19.20;56.90
12229;DHT22;6177;52.402;9.800;2022-11-15T14:15:34;19.10;56.80
12229;DHT22;6177;52.402;9.800;2022-11-15T14:18:47;18.90;57.00
12229;DHT22;6177;52.402;9.800;2022-11-15T14:21:32;18.70;57.80
12229;DHT22;6177;52.402;9.800;2022-11-15T14:24:21;18.50;58.60
12229;DHT22;6177;52.402;9.800;2022-11-15T14:27:24;18.20;59.30
12229;DHT22;6177;52.402;9.800;2022-11-15T14:30:16;17.80;60.30
12229;DHT22;6177;52.402;9.800;2022-11-15T14:33:01;17.40;61.10
12229;DHT22;6177;52.402;9.800;2022-11-15T14:35:47;17.10;61.90
12229;DHT22;6177;52.402;9.800;2022-11-15T14:38:32;17.00;62.30
12229;DHT22;6177;52.402;9.800;2022-11-15T14:41:23;16.90;62.50
12229;DHT22;6177;52.402;9.800;2022-11-15T14:44:10;16.70;62.80
12229;DHT22;6177;52.402;9.800;2022-11-15T14:46:55;16.60;63.20
12229;DHT22;6177;52.402;9.800;2022-11-15T14:49:39;16.50;63.40
12229;DHT22;6177;52.402;9.800;2022-11-15T14:58:03;16.00;64.30
12229;DHT22;6177;52.402;9.800;2022-11-15T15:00:48;15.90;64.80
12229;DHT22;6177;52.402;9.800;2022-11-15T15:03:33;15.80;65.20
12229;DHT22;6177;52.402;9.800;2022-11-15T15:06:18;15.60;65.50
12229;DHT22;6177;52.402;9.800;2022-11-15T15:09:03;15.60;66.00
12229;DHT22;6177;52.402;9.800;2022-11-15T15:11:47;15.50;66.40
12229;DHT22;6177;52.402;9.800;2022-11-15T15:14:32;15.50;66.60
12229;DHT22;6177;52.402;9.800;2022-11-15T15:17:17;15.40;66.60
12229;DHT22;6177;52.402;9.800;2022-11-15T15:20:02;15.30;66.60
12229;DHT22;6177;52.402;9.800;2022-11-15T15:22:47;15.30;66.70
12229;DHT22;6177;52.402;9.800;2022-11-15T15:25:35;15.20;66.70
12229;DHT22;6177;52.402;9.800;2022-11-15T15:28:19;15.20;66.80
12229;DHT22;6177;52.402;9.800;2022-11-15T15:31:03;15.10;66.90
12229;DHT22;6177;52.402;9.800;2022-11-15T15:33:48;15.10;67.00
12229;DHT22;6177;52.402;9.800;2022-11-15T15:36:33;15.00;67.00
12229;DHT22;6177;52.402;9.800;2022-11-15T15:39:17;15.00;67.20
12229;DHT22;6177;52.402;9.800;2022-11-15T15:42:02;15.00;67.10
12229;DHT22;6177;52.402;9.800;2022-11-15T15:44:48;14.90;67.20
12229;DHT22;6177;52.402;9.800;2022-11-15T15:47:33;14.90;67.50
12229;DHT22;6177;52.402;9.800;2022-11-15T15:50:29;14.90;67.70
12229;DHT22;6177;52.402;9.800;2022-11-15T15:53:14;14.80;67.80
12229;DHT22;6177;52.402;9.800;2022-11-15T15:55:59;14.80;68.10
12229;DHT22;6177;52.402;9.800;2022-11-15T15:58:43;14.80;68.30
12229;DHT22;6177;52.402;9.800;2022-11-15T16:01:28;14.70;68.60
12229;DHT22;6177;52.402;9.800;2022-11-15T16:04:12;14.70;69.00
12229;DHT22;6177;52.402;9.800;2022-11-15T16:07:01;14.60;69.30
12229;DHT22;6177;52.402;9.800;2022-11-15T16:09:47;14.50;69.70
12229;DHT22;6177;52.402;9.800;2022-11-15T16:12:48;14.40;70.10
12229;DHT22;6177;52.402;9.800;2022-11-15T16:15:33;14.30;70.60
12229;DHT22;6177;52.402;9.800;2022-11-15T16:18:19;14.10;71.00
12229;DHT22;6177;52.402;9.800;2022-11-15T16:21:03;14.00;71.50
12229;DHT22;6177;52.402;9.800;2022-11-15T16:23:48;13.90;71.90
12229;DHT22;6177;52.402;9.800;2022-11-15T16:26:33;13.80;72.40
12229;DHT22;6177;52.402;9.800;2022-11-15T16:29:19;13.80;72.80
12229;DHT22;6177;52.402;9.800;2022-11-15T16:32:03;13.70;73.10
12229;DHT22;6177;52.402;9.800;2022-11-15T16:34:48;13.70;73.40
12229;DHT22;6177;52.402;9.800;2022-11-15T16:37:32;13.70;73.60
12229;DHT22;6177;52.402;9.800;2022-11-15T16:40:27;13.70;73.70
12229;DHT22;6177;52.402;9.800;2022-11-15T16:43:12;13.70;73.70
12229;DHT22;6177;52.402;9.800;2022-11-15T16:45:57;13.70;73.80
12229;DHT22;6177;52.402;9.800;2022-11-15T16:48:41;13.80;74.30
12229;DHT22;6177;52.402;9.800;2022-11-15T16:51:26;13.80;73.90
12229;DHT22;6177;52.402;9.800;2022-11-15T16:54:10;13.80;74.00
12229;DHT22;6177;52.402;9.800;2022-11-15T16:56:55;13.80;74.00
12229;DHT22;6177;52.402;9.800;2022-11-15T16:59:40;13.80;74.10
12229;DHT22;6177;52.402;9.800;2022-11-15T17:02:28;13.70;74.10
12229;DHT22;6177;52.402;9.800;2022-11-15T17:05:20;13.70;74.20
12229;DHT22;6177;52.402;9.800;2022-11-15T17:08:05;13.60;74.30
12229;DHT22;6177;52.402;9.800;2022-11-15T17:10:50;13.50;74.40
12229;DHT22;6177;52.402;9.800;2022-11-15T17:13:34;13.40;74.70
12229;DHT22;6177;52.402;9.800;2022-11-15T17:16:19;13.30;75.00
12229;DHT22;6177;52.402;9.800;2022-11-15T17:19:05;13.20;75.30
12229;DHT22;6177;52.402;9.800;2022-11-15T17:21:50;13.10;75.50
12229;DHT22;6177;52.402;9.800;2022-11-15T17:24:34;13.10;75.70
12229;DHT22;6177;52.402;9.800;2022-11-15T17:27:19;13.10;75.90
12229;DHT22;6177;52.402;9.800;2022-11-15T17:30:06;13.00;76.00
12229;DHT22;6177;52.402;9.800;2022-11-15T17:32:50;12.90;76.20
12229;DHT22;6177;52.402;9.800;2022-11-15T17:35:35;12.90;76.50
12229;DHT22;6177;52.402;9.800;2022-11-15T17:38:20;12.80;76.60
12229;DHT22;6177;52.402;9.800;2022-11-15T17:41:13;12.80;76.80
12229;DHT22;6177;52.402;9.800;2022-11-15T17:43:59;12.70;76.90
12229;DHT22;6177;52.402;9.800;2022-11-15T17:46:44;12.60;77.20
12229;DHT22;6177;52.402;9.800;2022-11-15T17:49:28;12.60;77.40
12229;DHT22;6177;52.402;9.800;2022-11-15T17:52:13;12.50;77.60
12229;DHT22;6177;52.402;9.800;2022-11-15T17:54:58;12.50;77.80
12229;DHT22;6177;52.402;9.800;2022-11-15T17:57:43;12.50;77.90
12229;DHT22;6177;52.402;9.800;2022-11-15T18:00:28;12.50;78.10
12229;DHT22;6177;52.402;9.800;2022-11-15T18:03:13;12.50;78.20
12229;DHT22;6177;52.402;9.800;2022-11-15T18:05:58;12.40;78.20
12229;DHT22;6177;52.402;9.800;2022-11-15T18:08:45;12.40;78.30
12229;DHT22;6177;52.402;9.800;2022-11-15T18:11:31;12.40;78.40
12229;DHT22;6177;52.402;9.800;2022-11-15T18:14:18;12.30;78.40
12229;DHT22;6177;52.402;9.800;2022-11-15T18:17:03;12.30;78.60
12229;DHT22;6177;52.402;9.800;2022-11-15T18:19:47;12.30;78.70
12229;DHT22;6177;52.402;9.800;2022-11-15T18:22:32;12.20;78.80
12229;DHT22;6177;52.402;9.800;2022-11-15T18:25:18;12.20;78.90
12229;DHT22;6177;52.402;9.800;2022-11-15T18:28:03;12.20;79.00
12229;DHT22;6177;52.402;9.800;2022-11-15T18:30:47;12.20;79.00
12229;DHT22;6177;52.402;9.800;2022-11-15T18:33:33;12.20;79.00
12229;DHT22;6177;52.402;9.800;2022-11-15T18:36:24;12.30;78.90
12229;DHT22;6177;52.402;9.800;2022-11-15T18:39:09;12.40;78.70
12229;DHT22;6177;52.402;9.800;2022-11-15T18:41:59;12.40;78.50
12229;DHT22;6177;52.402;9.800;2022-11-15T18:44:44;12.50;78.40
12229;DHT22;6177;52.402;9.800;2022-11-15T18:47:29;12.50;78.20
12229;DHT22;6177;52.402;9.800;2022-11-15T18:50:14;12.60;77.90
12229;DHT22;6177;52.402;9.800;2022-11-15T18:53:00;12.60;77.60
12229;DHT22;6177;52.402;9.800;2022-11-15T18:55:46;12.50;77.40
12229;DHT22;6177;52.402;9.800;2022-11-15T18:58:31;12.50;77.30
12229;DHT22;6177;52.402;9.800;2022-11-15T19:01:19;12.50;77.30
12229;DHT22;6177;52.402;9.800;2022-11-15T19:04:09;12.50;77.30
12229;DHT22;6177;52.402;9.800;2022-11-15T19:06:54;12.50;77.30
12229;DHT22;6177;52.402;9.800;2022-11-15T19:09:39;12.40;77.40
12229;DHT22;6177;52.402;9.800;2022-11-15T19:12:24;12.40;77.30
12229;DHT22;6177;52.402;9.800;2022-11-15T19:15:09;12.40;77.40
12229;DHT22;6177;52.402;9.800;2022-11-15T19:17:53;12.50;77.40
12229;DHT22;6177;52.402;9.800;2022-11-15T19:20:38;12.50;77.50
12229;DHT22;6177;52.402;9.800;2022-11-15T19:23:23;12.50;77.50
12229;DHT22;6177;52.402;9.800;2022-11-15T19:26:12;12.60;77.50
12229;DHT22;6177;52.402;9.800;2022-11-15T19:28:59;12.60;77.50
12229;DHT22;6177;52.402;9.800;2022-11-15T19:31:45;12.60;77.40
12229;DHT22;6177;52.402;9.800;2022-11-15T19:34:35;12.60;77.30
12229;DHT22;6177;52.402;9.800;2022-11-15T19:37:21;12.70;77.20
12229;DHT22;6177;52.402;9.800;2022-11-15T19:40:06;12.70;77.10
12229;DHT22;6177;52.402;9.800;2022-11-15T19:42:51;12.70;76.90
12229;DHT22;6177;52.402;9.800;2022-11-15T19:45:36;12.70;76.70
12229;DHT22;6177;52.402;9.800;2022-11-15T19:48:21;12.80;76.70
12229;DHT22;6177;52.402;9.800;2022-11-15T19:51:09;12.80;76.50
12229;DHT22;6177;52.402;9.800;2022-11-15T19:53:58;12.80;76.40
12229;DHT22;6177;52.402;9.800;2022-11-15T19:56:44;12.80;76.30
12229;DHT22;6177;52.402;9.800;2022-11-15T19:59:29;12.80;76.20
12229;DHT22;6177;52.402;9.800;2022-11-15T20:02:13;12.80;76.20
12229;DHT22;6177;52.402;9.800;2022-11-15T20:04:58;12.80;76.00
12229;DHT22;6177;52.402;9.800;2022-11-15T20:07:43;12.80;75.80
12229;DHT22;6177;52.402;9.800;2022-11-15T20:10:27;12.80;75.60
12229;DHT22;6177;52.402;9.800;2022-11-15T20:13:12;12.80;75.50
12229;DHT22;6177;52.402;9.800;2022-11-15T20:15:57;12.80;75.50
12229;DHT22;6177;52.402;9.800;2022-11-15T20:18:42;12.80;75.40
12229;DHT22;6177;52.402;9.800;2022-11-15T20:21:27;12.80;75.50
12229;DHT22;6177;52.402;9.800;2022-11-15T20:24:12;12.80;75.50
12229;DHT22;6177;52.402;9.800;2022-11-15T20:26:56;12.80;75.50
12229;DHT22;6177;52.402;9.800;2022-11-15T20:29:41;12.80;75.40
12229;DHT22;6177;52.402;9.800;2022-11-15T20:32:27;12.80;75.30
12229;DHT22;6177;52.402;9.800;2022-11-15T20:35:11;12.80;75.30
12229;DHT22;6177;52.402;9.800;2022-11-15T20:37:56;12.80;75.30
12229;DHT22;6177;52.402;9.800;2022-11-15T20:40:43;12.80;75.20
12229;DHT22;6177;52.402;9.800;2022-11-15T20:43:27;12.80;75.50
12229;DHT22;6177;52.402;9.800;2022-11-15T20:46:12;12.70;75.00
12229;DHT22;6177;52.402;9.800;2022-11-15T20:48:56;12.80;74.90
12229;DHT22;6177;52.402;9.800;2022-11-15T20:51:41;12.80;74.90
12229;DHT22;6177;52.402;9.800;2022-11-15T20:54:26;12.80;74.80